sensor_id;sensor_type;location;lat;lon;timestamp;P1;durP1;ratioP1;P2;durP2;ratioP2
17169;SDS011;8700;48.222;16.342;2023-08-31T00:02:14;4.60;;;4.28;;
17169;SDS011;8700;48.222;16.342;2023-08-31T00:05:36;4.25;;;3.85;;
17169;SDS011;8700;48.222;16.342;2023-08-31T00:09:00;4.18;;;3.92;;
17169;SDS011;8700;48.222;16.342;2023-08-31T00:12:24;3.88;;;3.60;;
17169;SDS011;8700;48.222;16.342;2023-08-31T00:15:46;3.88;;;3.67;;
17169;SDS011;8700;48.222;16.342;2023-08-31T00:19:08;4.78;;;4.30;;
17169;SDS011;8700;48.222;16.342;2023-08-31T00:22:29;4.00;;;3.80;;
17169;SDS011;8700;48.222;16.342;2023-08-31T00:25:50;3.67;;;3.47;;
17169;SDS011;8700;48.222;16.342;2023-08-31T00:29:14;4.60;;;4.30;;
17169;SDS011;8700;48.222;16.342;2023-08-31T00:32:35;4.72;;;4.40;;
17169;SDS011;8700;48.222;16.342;2023-08-31T00:35:59;4.18;;;3.88;;
17169;SDS011;8700;48.222;16.342;2023-08-31T00:39:22;4.25;;;3.90;;
17169;SDS011;8700;48.222;16.342;2023-08-31T00:42:44;4.00;;;3.80;;
17169;SDS011;8700;48.222;16.342;2023-08-31T00:46:07;4.60;;;4.30;;
17169;SDS011;8700;48.222;16.342;2023-08-31T00:49:28;4.03;;;3.80;;
17169;SDS011;8700;48.222;16.342;2023-08-31T00:52:49;4.38;;;4.07;;
17169;SDS011;8700;48.222;16.342;2023-08-31T00:56:11;4.20;;;4.00;;
17169;SDS011;8700;48.222;16.342;2023-08-31T00:59:33;4.53;;;4.22;;
17169;SDS011;8700;48.222;16.342;2023-08-31T01:02:59;3.70;;;3.47;;
17169;SDS011;8700;48.222;16.342;2023-08-31T01:06:27;3.97;;;3.78;;
17169;SDS011;8700;48.222;16.342;2023-08-31T01:09:58;3.80;;;3.50;;
17169;SDS011;8700;48.222;16.342;2023-08-31T01:13:27;4.95;;;4.55;;
17169;SDS011;8700;48.222;16.342;2023-08-31T01:16:52;4.57;;;4.28;;
17169;SDS011;8700;48.222;16.342;2023-08-31T01:20:19;4.18;;;3.95;;
17169;SDS011;8700;48.222;16.342;2023-08-31T01:23:51;4.32;;;4.03;;
17169;SDS011;8700;48.222;16.342;2023-08-31T01:27:12;4.30;;;4.10;;
17169;SDS011;8700;48.222;16.342;2023-08-31T01:30:34;5.10;;;4.80;;
17169;SDS011;8700;48.222;16.342;2023-08-31T01:33:55;5.60;;;5.10;;
17169;SDS011;8700;48.222;16.342;2023-08-31T01:37:17;5.93;;;5.53;;
17169;SDS011;8700;48.222;16.342;2023-08-31T01:40:44;5.47;;;5.18;;
17169;SDS011;8700;48.222;16.342;2023-08-31T01:44:11;5.55;;;5.15;;
17169;SDS011;8700;48.222;16.342;2023-08-31T01:47:36;5.25;;;4.88;;
17169;SDS011;8700;48.222;16.342;2023-08-31T01:50:57;6.50;;;6.00;;
17169;SDS011;8700;48.222;16.342;2023-08-31T01:54:20;5.97;;;5.57;;
17169;SDS011;8700;48.222;16.342;2023-08-31T01:57:43;5.25;;;4.95;;
17169;SDS011;8700;48.222;16.342;2023-08-31T02:01:04;6.28;;;5.78;;
17169;SDS011;8700;48.222;16.342;2023-08-31T02:04:25;6.38;;;5.97;;
17169;SDS011;8700;48.222;16.342;2023-08-31T02:07:46;6.13;;;5.72;;
17169;SDS011;8700;48.222;16.342;2023-08-31T02:11:07;6.55;;;6.05;;
17169;SDS011;8700;48.222;16.342;2023-08-31T02:14:30;5.85;;;5.45;;
17169;SDS011;8700;48.222;16.342;2023-08-31T02:17:52;6.30;;;5.88;;
17169;SDS011;8700;48.222;16.342;2023-08-31T02:21:13;6.03;;;5.63;;
17169;SDS011;8700;48.222;16.342;2023-08-31T02:24:34;5.97;;;5.57;;
17169;SDS011;8700;48.222;16.342;2023-08-31T02:27:55;6.18;;;5.68;;
17169;SDS011;8700;48.222;16.342;2023-08-31T02:31:18;5.95;;;5.55;;
17169;SDS011;8700;48.222;16.342;2023-08-31T02:34:39;6.32;;;5.90;;
17169;SDS011;8700;48.222;16.342;2023-08-31T02:38:04;5.60;;;5.30;;
17169;SDS011;8700;48.222;16.342;2023-08-31T02:41:25;6.25;;;5.72;;
17169;SDS011;8700;48.222;16.342;2023-08-31T02:44:46;6.07;;;5.60;;
17169;SDS011;8700;48.222;16.342;2023-08-31T02:48:09;5.95;;;5.50;;
17169;SDS011;8700;48.222;16.342;2023-08-31T02:51:31;6.30;;;5.80;;
17169;SDS011;8700;48.222;16.342;2023-08-31T02:54:52;5.53;;;5.20;;
17169;SDS011;8700;48.222;16.342;2023-08-31T02:58:13;5.40;;;5.00;;
17169;SDS011;8700;48.222;16.342;2023-08-31T03:01:35;5.03;;;4.57;;
17169;SDS011;8700;48.222;16.342;2023-08-31T03:04:57;4.97;;;4.68;;
17169;SDS011;8700;48.222;16.342;2023-08-31T03:08:22;6.60;;;5.07;;
17169;SDS011;8700;48.222;16.342;2023-08-31T03:11:43;5.07;;;4.78;;
17169;SDS011;8700;48.222;16.342;2023-08-31T03:15:05;5.28;;;4.90;;
17169;SDS011;8700;48.222;16.342;2023-08-31T03:18:28;5.22;;;4.88;;
17169;SDS011;8700;48.222;16.342;2023-08-31T03:21:50;4.53;;;4.32;;
17169;SDS011;8700;48.222;16.342;2023-08-31T03:25:12;4.43;;;4.07;;
17169;SDS011;8700;48.222;16.342;2023-08-31T03:28:33;4.40;;;4.10;;
17169;SDS011;8700;48.222;16.342;2023-08-31T03:31:54;5.88;;;5.47;;
17169;SDS011;8700;48.222;16.342;2023-08-31T03:35:15;5.38;;;5.07;;
17169;SDS011;8700;48.222;16.342;2023-08-31T03:38:38;4.50;;;4.20;;
17169;SDS011;8700;48.222;16.342;2023-08-31T03:41:59;4.65;;;4.35;;
17169;SDS011;8700;48.222;16.342;2023-08-31T03:45:22;4.88;;;4.57;;
17169;SDS011;8700;48.222;16.342;2023-08-31T03:48:43;4.88;;;4.57;;
17169;SDS011;8700;48.222;16.342;2023-08-31T03:52:04;4.57;;;4.28;;
17169;SDS011;8700;48.222;16.342;2023-08-31T03:55:27;4.40;;;4.20;;
17169;SDS011;8700;48.222;16.342;2023-08-31T03:58:48;4.57;;;4.28;;
17169;SDS011;8700;48.222;16.342;2023-08-31T04:02:09;5.18;;;4.78;;
17169;SDS011;8700;48.222;16.342;2023-08-31T04:05:31;4.60;;;4.30;;
17169;SDS011;8700;48.222;16.342;2023-08-31T04:08:54;4.43;;;4.13;;
17169;SDS011;8700;48.222;16.342;2023-08-31T04:12:16;5.07;;;4.68;;
17169;SDS011;8700;48.222;16.342;2023-08-31T04:15:37;4.55;;;4.25;;
17169;SDS011;8700;48.222;16.342;2023-08-31T04:18:59;5.93;;;5.43;;
17169;SDS011;8700;48.222;16.342;2023-08-31T04:22:20;4.25;;;4.05;;
17169;SDS011;8700;48.222;16.342;2023-08-31T04:25:41;5.13;;;4.78;;
17169;SDS011;8700;48.222;16.342;2023-08-31T04:29:03;4.10;;;3.90;;
17169;SDS011;8700;48.222;16.342;2023-08-31T04:32:25;4.25;;;3.92;;
17169;SDS011;8700;48.222;16.342;2023-08-31T04:35:46;5.45;;;5.05;;
17169;SDS011;8700;48.222;16.342;2023-08-31T04:39:09;5.47;;;5.10;;
17169;SDS011;8700;48.222;16.342;2023-08-31T04:42:30;6.78;;;5.45;;
17169;SDS011;8700;48.222;16.342;2023-08-31T04:45:53;4.45;;;4.10;;
17169;SDS011;8700;48.222;16.342;2023-08-31T04:49:14;4.45;;;4.20;;
17169;SDS011;8700;48.222;16.342;2023-08-31T04:52:35;3.95;;;3.63;;
17169;SDS011;8700;48.222;16.342;2023-08-31T04:55:56;7.05;;;4.68;;
17169;SDS011;8700;48.222;16.342;2023-08-31T04:59:18;4.53;;;4.22;;
17169;SDS011;8700;48.222;16.342;2023-08-31T05:02:41;4.07;;;3.85;;
17169;SDS011;8700;48.222;16.342;2023-08-31T05:06:02;4.60;;;4.30;;
17169;SDS011;8700;48.222;16.342;2023-08-31T05:09:25;4.85;;;4.55;;
17169;SDS011;8700;48.222;16.342;2023-08-31T05:12:46;4.10;;;3.90;;
17169;SDS011;8700;48.222;16.342;2023-08-31T05:16:07;5.30;;;4.88;;
17169;SDS011;8700;48.222;16.342;2023-08-31T05:19:30;4.93;;;4.57;;
17169;SDS011;8700;48.222;16.342;2023-08-31T05:22:52;4.78;;;4.38;;
17169;SDS011;8700;48.222;16.342;2023-08-31T05:26:13;5.13;;;4.07;;
17169;SDS011;8700;48.222;16.342;2023-08-31T05:29:34;6.57;;;5.95;;
17169;SDS011;8700;48.222;16.342;2023-08-31T05:32:56;5.40;;;5.03;;
17169;SDS011;8700;48.222;16.342;2023-08-31T05:36:18;5.22;;;4.72;;
17169;SDS011;8700;48.222;16.342;2023-08-31T05:39:39;4.22;;;3.92;;
17169;SDS011;8700;48.222;16.342;2023-08-31T05:43:01;4.05;;;3.85;;
17169;SDS011;8700;48.222;16.342;2023-08-31T05:46:23;3.95;;;3.75;;
17169;SDS011;8700;48.222;16.342;2023-08-31T05:49:44;4.57;;;4.22;;
17169;SDS011;8700;48.222;16.342;2023-08-31T05:53:07;3.83;;;3.53;;
17169;SDS011;8700;48.222;16.342;2023-08-31T05:56:28;4.38;;;4.07;;
17169;SDS011;8700;48.222;16.342;2023-08-31T05:59:49;4.18;;;3.85;;
17169;SDS011;8700;48.222;16.342;2023-08-31T06:03:10;6.82;;;3.70;;
17169;SDS011;8700;48.222;16.342;2023-08-31T06:06:32;3.72;;;3.53;;
17169;SDS011;8700;48.222;16.342;2023-08-31T06:09:55;4.82;;;4.43;;
17169;SDS011;8700;48.222;16.342;2023-08-31T06:13:16;4.30;;;4.00;;
17169;SDS011;8700;48.222;16.342;2023-08-31T06:16:38;4.75;;;4.45;;
17169;SDS011;8700;48.222;16.342;2023-08-31T06:19:59;3.92;;;3.63;;
17169;SDS011;8700;48.222;16.342;2023-08-31T06:23:20;3.50;;;3.28;;
17169;SDS011;8700;48.222;16.342;2023-08-31T06:26:43;3.45;;;3.20;;
17169;SDS011;8700;48.222;16.342;2023-08-31T06:30:04;4.75;;;3.90;;
17169;SDS011;8700;48.222;16.342;2023-08-31T06:33:27;3.55;;;3.28;;
17169;SDS011;8700;48.222;16.342;2023-08-31T06:36:48;4.07;;;3.78;;
17169;SDS011;8700;48.222;16.342;2023-08-31T06:40:10;3.95;;;3.75;;
17169;SDS011;8700;48.222;16.342;2023-08-31T06:43:32;3.78;;;3.47;;
17169;SDS011;8700;48.222;16.342;2023-08-31T06:46:54;5.18;;;3.42;;
17169;SDS011;8700;48.222;16.342;2023-08-31T06:50:15;4.82;;;4.53;;
17169;SDS011;8700;48.222;16.342;2023-08-31T06:53:36;3.60;;;3.40;;
17169;SDS011;8700;48.222;16.342;2023-08-31T06:57:01;4.40;;;4.10;;
17169;SDS011;8700;48.222;16.342;2023-08-31T07:00:23;3.78;;;3.58;;
17169;SDS011;8700;48.222;16.342;2023-08-31T07:03:45;4.25;;;3.90;;
17169;SDS011;8700;48.222;16.342;2023-08-31T07:07:07;4.20;;;3.85;;
17169;SDS011;8700;48.222;16.342;2023-08-31T07:10:28;3.40;;;3.05;;
17169;SDS011;8700;48.222;16.342;2023-08-31T07:13:50;3.95;;;3.75;;
17169;SDS011;8700;48.222;16.342;2023-08-31T07:17:13;5.63;;;4.07;;
17169;SDS011;8700;48.222;16.342;2023-08-31T07:20:38;4.68;;;4.28;;
17169;SDS011;8700;48.222;16.342;2023-08-31T07:23:59;6.53;;;4.38;;
17169;SDS011;8700;48.222;16.342;2023-08-31T07:27:21;5.50;;;5.20;;
17169;SDS011;8700;48.222;16.342;2023-08-31T07:30:42;4.82;;;4.43;;
17169;SDS011;8700;48.222;16.342;2023-08-31T07:34:04;4.80;;;4.45;;
17169;SDS011;8700;48.222;16.342;2023-08-31T07:37:27;5.40;;;4.97;;
17169;SDS011;8700;48.222;16.342;2023-08-31T07:40:48;4.45;;;4.15;;
17169;SDS011;8700;48.222;16.342;2023-08-31T07:44:09;4.28;;;3.97;;
17169;SDS011;8700;48.222;16.342;2023-08-31T07:47:31;5.30;;;4.90;;
17169;SDS011;8700;48.222;16.342;2023-08-31T07:50:53;4.70;;;4.45;;
17169;SDS011;8700;48.222;16.342;2023-08-31T07:54:19;4.78;;;4.45;;
17169;SDS011;8700;48.222;16.342;2023-08-31T07:57:40;5.03;;;4.72;;
17169;SDS011;8700;48.222;16.342;2023-08-31T08:01:02;5.00;;;4.70;;
17169;SDS011;8700;48.222;16.342;2023-08-31T08:04:24;4.97;;;4.57;;
17169;SDS011;8700;48.222;16.342;2023-08-31T08:07:47;5.07;;;4.63;;
17169;SDS011;8700;48.222;16.342;2023-08-31T08:11:08;5.10;;;4.68;;
17169;SDS011;8700;48.222;16.342;2023-08-31T08:14:30;4.80;;;4.50;;
17169;SDS011;8700;48.222;16.342;2023-08-31T08:17:51;4.22;;;3.92;;
17169;SDS011;8700;48.222;16.342;2023-08-31T08:21:13;7.20;;;6.25;;
17169;SDS011;8700;48.222;16.342;2023-08-31T08:24:35;5.78;;;5.38;;
17169;SDS011;8700;48.222;16.342;2023-08-31T08:27:57;4.28;;;3.97;;
17169;SDS011;8700;48.222;16.342;2023-08-31T08:31:18;4.70;;;4.40;;
17169;SDS011;8700;48.222;16.342;2023-08-31T08:34:39;5.53;;;4.90;;
17169;SDS011;8700;48.222;16.342;2023-08-31T08:38:00;4.78;;;4.47;;
17169;SDS011;8700;48.222;16.342;2023-08-31T08:41:23;4.28;;;3.40;;
17169;SDS011;8700;48.222;16.342;2023-08-31T08:44:44;4.57;;;3.13;;
17169;SDS011;8700;48.222;16.342;2023-08-31T08:48:07;5.55;;;3.22;;
17169;SDS011;8700;48.222;16.342;2023-08-31T08:51:29;3.28;;;3.08;;
17169;SDS011;8700;48.222;16.342;2023-08-31T08:54:51;5.13;;;3.47;;
17169;SDS011;8700;48.222;16.342;2023-08-31T08:58:14;4.30;;;2.92;;
17169;SDS011;8700;48.222;16.342;2023-08-31T09:01:35;2.90;;;2.70;;
17169;SDS011;8700;48.222;16.342;2023-08-31T09:04:57;2.58;;;2.40;;
17169;SDS011;8700;48.222;16.342;2023-08-31T09:08:19;5.47;;;3.58;;
17169;SDS011;8700;48.222;16.342;2023-08-31T09:11:46;3.60;;;3.10;;
17169;SDS011;8700;48.222;16.342;2023-08-31T09:15:09;4.45;;;3.40;;
17169;SDS011;8700;48.222;16.342;2023-08-31T09:18:31;3.88;;;2.70;;
17169;SDS011;8700;48.222;16.342;2023-08-31T09:21:55;2.97;;;2.78;;
17169;SDS011;8700;48.222;16.342;2023-08-31T09:25:17;2.30;;;2.20;;
17169;SDS011;8700;48.222;16.342;2023-08-31T09:28:40;5.07;;;2.35;;
17169;SDS011;8700;48.222;16.342;2023-08-31T09:32:04;2.28;;;2.17;;
17169;SDS011;8700;48.222;16.342;2023-08-31T09:35:26;7.78;;;2.30;;
17169;SDS011;8700;48.222;16.342;2023-08-31T09:38:47;2.53;;;2.42;;
17169;SDS011;8700;48.222;16.342;2023-08-31T09:42:08;2.78;;;2.58;;
17169;SDS011;8700;48.222;16.342;2023-08-31T09:45:30;3.00;;;2.05;;
17169;SDS011;8700;48.222;16.342;2023-08-31T09:48:54;2.38;;;2.17;;
17169;SDS011;8700;48.222;16.342;2023-08-31T09:52:15;2.30;;;2.10;;
17169;SDS011;8700;48.222;16.342;2023-08-31T09:55:39;2.58;;;2.47;;
17169;SDS011;8700;48.222;16.342;2023-08-31T09:59:00;3.15;;;2.25;;
17169;SDS011;8700;48.222;16.342;2023-08-31T10:02:22;3.03;;;2.83;;
17169;SDS011;8700;48.222;16.342;2023-08-31T10:05:46;2.00;;;1.90;;
17169;SDS011;8700;48.222;16.342;2023-08-31T10:09:08;2.58;;;2.40;;
17169;SDS011;8700;48.222;16.342;2023-08-31T10:12:30;1.80;;;1.70;;
17169;SDS011;8700;48.222;16.342;2023-08-31T10:15:53;30.92;;;6.55;;
17169;SDS011;8700;48.222;16.342;2023-08-31T10:19:15;44.10;;;6.65;;
17169;SDS011;8700;48.222;16.342;2023-08-31T10:22:37;2.70;;;2.10;;
17169;SDS011;8700;48.222;16.342;2023-08-31T10:25:59;2.53;;;2.33;;
17169;SDS011;8700;48.222;16.342;2023-08-31T10:29:27;2.17;;;1.98;;
17169;SDS011;8700;48.222;16.342;2023-08-31T10:33:01;2.85;;;2.65;;
17169;SDS011;8700;48.222;16.342;2023-08-31T10:36:38;2.53;;;2.33;;
17169;SDS011;8700;48.222;16.342;2023-08-31T10:40:10;2.10;;;1.90;;
17169;SDS011;8700;48.222;16.342;2023-08-31T10:47:10;3.08;;;2.17;;
17169;SDS011;8700;48.222;16.342;2023-08-31T10:50:33;2.72;;;2.15;;
17169;SDS011;8700;48.222;16.342;2023-08-31T10:54:05;2.40;;;2.20;;
17169;SDS011;8700;48.222;16.342;2023-08-31T10:57:30;2.25;;;2.15;;
17169;SDS011;8700;48.222;16.342;2023-08-31T11:00:51;2.55;;;2.35;;
17169;SDS011;8700;48.222;16.342;2023-08-31T11:04:16;2.53;;;2.33;;
17169;SDS011;8700;48.222;16.342;2023-08-31T11:07:38;2.45;;;2.25;;
17169;SDS011;8700;48.222;16.342;2023-08-31T11:11:00;2.55;;;2.35;;
17169;SDS011;8700;48.222;16.342;2023-08-31T11:14:25;3.03;;;2.83;;
17169;SDS011;8700;48.222;16.342;2023-08-31T11:17:46;2.47;;;2.03;;
17169;SDS011;8700;48.222;16.342;2023-08-31T11:21:09;2.78;;;2.58;;
17169;SDS011;8700;48.222;16.342;2023-08-31T11:24:31;2.28;;;2.10;;
17169;SDS011;8700;48.222;16.342;2023-08-31T11:27:53;2.53;;;2.35;;
17169;SDS011;8700;48.222;16.342;2023-08-31T11:31:24;2.00;;;1.90;;
17169;SDS011;8700;48.222;16.342;2023-08-31T11:34:45;3.35;;;2.28;;
17169;SDS011;8700;48.222;16.342;2023-08-31T11:38:06;2.45;;;2.28;;
17169;SDS011;8700;48.222;16.342;2023-08-31T11:41:29;2.67;;;2.47;;
17169;SDS011;8700;48.222;16.342;2023-08-31T11:44:53;3.53;;;2.38;;
17169;SDS011;8700;48.222;16.342;2023-08-31T11:48:15;2.15;;;2.05;;
17169;SDS011;8700;48.222;16.342;2023-08-31T11:51:37;3.35;;;3.15;;
17169;SDS011;8700;48.222;16.342;2023-08-31T11:55:09;2.88;;;2.67;;
17169;SDS011;8700;48.222;16.342;2023-08-31T11:58:31;3.65;;;2.83;;
17169;SDS011;8700;48.222;16.342;2023-08-31T12:01:52;2.72;;;2.60;;
17169;SDS011;8700;48.222;16.342;2023-08-31T12:05:15;3.13;;;2.60;;
17169;SDS011;8700;48.222;16.342;2023-08-31T12:08:36;2.45;;;2.25;;
17169;SDS011;8700;48.222;16.342;2023-08-31T12:11:58;3.08;;;2.83;;
17169;SDS011;8700;48.222;16.342;2023-08-31T12:15:19;5.63;;;3.20;;
17169;SDS011;8700;48.222;16.342;2023-08-31T12:18:42;3.55;;;2.97;;
17169;SDS011;8700;48.222;16.342;2023-08-31T12:22:06;2.72;;;2.55;;
17169;SDS011;8700;48.222;16.342;2023-08-31T12:25:32;3.70;;;2.15;;
17169;SDS011;8700;48.222;16.342;2023-08-31T12:28:53;3.25;;;3.03;;
17169;SDS011;8700;48.222;16.342;2023-08-31T12:32:14;2.63;;;2.42;;
17169;SDS011;8700;48.222;16.342;2023-08-31T12:35:37;2.70;;;2.50;;
17169;SDS011;8700;48.222;16.342;2023-08-31T12:39:00;2.65;;;2.45;;
17169;SDS011;8700;48.222;16.342;2023-08-31T12:42:25;3.50;;;3.25;;
17169;SDS011;8700;48.222;16.342;2023-08-31T12:45:46;4.60;;;3.33;;
17169;SDS011;8700;48.222;16.342;2023-08-31T12:49:07;4.95;;;3.10;;
17169;SDS011;8700;48.222;16.342;2023-08-31T12:52:28;3.20;;;3.00;;
17169;SDS011;8700;48.222;16.342;2023-08-31T12:55:51;3.67;;;2.70;;
17169;SDS011;8700;48.222;16.342;2023-08-31T12:59:13;3.17;;;2.97;;
17169;SDS011;8700;48.222;16.342;2023-08-31T13:02:34;2.67;;;2.47;;
17169;SDS011;8700;48.222;16.342;2023-08-31T13:05:55;3.00;;;2.80;;
17169;SDS011;8700;48.222;16.342;2023-08-31T13:09:16;3.72;;;3.33;;
17169;SDS011;8700;48.222;16.342;2023-08-31T13:12:39;2.95;;;2.75;;
17169;SDS011;8700;48.222;16.342;2023-08-31T13:16:00;3.25;;;2.90;;
17169;SDS011;8700;48.222;16.342;2023-08-31T13:19:22;3.85;;;3.55;;
17169;SDS011;8700;48.222;16.342;2023-08-31T13:22:43;3.33;;;3.08;;
17169;SDS011;8700;48.222;16.342;2023-08-31T13:26:04;5.00;;;3.00;;
17169;SDS011;8700;48.222;16.342;2023-08-31T13:29:27;3.00;;;2.80;;
17169;SDS011;8700;48.222;16.342;2023-08-31T13:32:49;3.35;;;3.00;;
17169;SDS011;8700;48.222;16.342;2023-08-31T13:36:10;3.53;;;3.17;;
17169;SDS011;8700;48.222;16.342;2023-08-31T13:39:34;3.28;;;3.03;;
17169;SDS011;8700;48.222;16.342;2023-08-31T13:42:56;3.45;;;3.22;;
17169;SDS011;8700;48.222;16.342;2023-08-31T13:46:22;3.42;;;3.13;;
17169;SDS011;8700;48.222;16.342;2023-08-31T13:49:43;2.80;;;2.60;;
17169;SDS011;8700;48.222;16.342;2023-08-31T13:53:04;3.35;;;3.05;;
17169;SDS011;8700;48.222;16.342;2023-08-31T13:56:25;2.95;;;2.75;;
17169;SDS011;8700;48.222;16.342;2023-08-31T13:59:47;2.88;;;2.67;;
17169;SDS011;8700;48.222;16.342;2023-08-31T14:03:09;4.85;;;3.47;;
17169;SDS011;8700;48.222;16.342;2023-08-31T14:06:31;3.22;;;2.92;;
17169;SDS011;8700;48.222;16.342;2023-08-31T14:09:52;3.70;;;3.40;;
17169;SDS011;8700;48.222;16.342;2023-08-31T14:13:13;4.65;;;3.13;;
17169;SDS011;8700;48.222;16.342;2023-08-31T14:16:34;2.85;;;2.65;;
17169;SDS011;8700;48.222;16.342;2023-08-31T14:19:59;3.05;;;2.85;;
17169;SDS011;8700;48.222;16.342;2023-08-31T14:23:25;3.40;;;3.10;;
17169;SDS011;8700;48.222;16.342;2023-08-31T14:26:46;3.92;;;2.97;;
17169;SDS011;8700;48.222;16.342;2023-08-31T14:30:08;3.47;;;3.28;;
17169;SDS011;8700;48.222;16.342;2023-08-31T14:33:29;3.95;;;3.33;;
17169;SDS011;8700;48.222;16.342;2023-08-31T14:36:52;3.15;;;2.95;;
17169;SDS011;8700;48.222;16.342;2023-08-31T14:40:16;3.53;;;3.25;;
17169;SDS011;8700;48.222;16.342;2023-08-31T14:43:38;3.70;;;3.50;;
17169;SDS011;8700;48.222;16.342;2023-08-31T14:47:00;3.72;;;3.40;;
17169;SDS011;8700;48.222;16.342;2023-08-31T14:50:21;3.85;;;3.53;;
17169;SDS011;8700;48.222;16.342;2023-08-31T14:53:44;3.50;;;3.30;;
17169;SDS011;8700;48.222;16.342;2023-08-31T14:57:05;4.13;;;3.20;;
17169;SDS011;8700;48.222;16.342;2023-08-31T15:00:26;3.97;;;3.67;;
17169;SDS011;8700;48.222;16.342;2023-08-31T15:03:47;4.57;;;4.18;;
17169;SDS011;8700;48.222;16.342;2023-08-31T15:07:09;2.78;;;2.58;;
17169;SDS011;8700;48.222;16.342;2023-08-31T15:10:31;3.85;;;3.53;;
17169;SDS011;8700;48.222;16.342;2023-08-31T15:13:53;3.85;;;3.47;;
17169;SDS011;8700;48.222;16.342;2023-08-31T15:17:14;3.50;;;3.20;;
17169;SDS011;8700;48.222;16.342;2023-08-31T15:20:35;4.03;;;3.60;;
17169;SDS011;8700;48.222;16.342;2023-08-31T15:23:57;3.80;;;3.50;;
17169;SDS011;8700;48.222;16.342;2023-08-31T15:27:19;3.45;;;3.20;;
17169;SDS011;8700;48.222;16.342;2023-08-31T15:30:40;4.28;;;3.92;;
17169;SDS011;8700;48.222;16.342;2023-08-31T15:34:02;3.85;;;3.60;;
17169;SDS011;8700;48.222;16.342;2023-08-31T15:37:23;4.32;;;3.63;;
17169;SDS011;8700;48.222;16.342;2023-08-31T15:40:47;4.25;;;3.38;;
17169;SDS011;8700;48.222;16.342;2023-08-31T15:44:10;4.50;;;3.83;;
17169;SDS011;8700;48.222;16.342;2023-08-31T15:47:31;4.00;;;3.70;;
17169;SDS011;8700;48.222;16.342;2023-08-31T15:50:52;5.03;;;4.07;;
17169;SDS011;8700;48.222;16.342;2023-08-31T15:54:14;4.35;;;4.05;;
17169;SDS011;8700;48.222;16.342;2023-08-31T15:57:35;4.47;;;4.10;;
17169;SDS011;8700;48.222;16.342;2023-08-31T16:00:58;4.10;;;3.85;;
17169;SDS011;8700;48.222;16.342;2023-08-31T16:04:22;4.65;;;4.30;;
17169;SDS011;8700;48.222;16.342;2023-08-31T16:07:43;3.65;;;3.35;;
17169;SDS011;8700;48.222;16.342;2023-08-31T16:11:04;3.83;;;3.42;;
17169;SDS011;8700;48.222;16.342;2023-08-31T16:14:25;3.72;;;3.35;;
17169;SDS011;8700;48.222;16.342;2023-08-31T16:17:48;3.85;;;3.55;;
17169;SDS011;8700;48.222;16.342;2023-08-31T16:21:10;5.15;;;3.58;;
17169;SDS011;8700;48.222;16.342;2023-08-31T16:24:32;5.47;;;3.53;;
17169;SDS011;8700;48.222;16.342;2023-08-31T16:27:53;4.50;;;4.07;;
17169;SDS011;8700;48.222;16.342;2023-08-31T16:31:15;3.80;;;3.50;;
17169;SDS011;8700;48.222;16.342;2023-08-31T16:34:38;4.30;;;4.00;;
17169;SDS011;8700;48.222;16.342;2023-08-31T16:37:59;5.45;;;3.65;;
17169;SDS011;8700;48.222;16.342;2023-08-31T16:41:20;4.10;;;3.70;;
17169;SDS011;8700;48.222;16.342;2023-08-31T16:44:41;4.32;;;4.03;;
17169;SDS011;8700;48.222;16.342;2023-08-31T16:48:03;4.85;;;4.45;;
17169;SDS011;8700;48.222;16.342;2023-08-31T16:51:25;3.88;;;3.67;;
17169;SDS011;8700;48.222;16.342;2023-08-31T16:54:47;5.05;;;4.75;;
17169;SDS011;8700;48.222;16.342;2023-08-31T16:58:08;3.78;;;3.40;;
17169;SDS011;8700;48.222;16.342;2023-08-31T17:01:32;3.97;;;3.67;;
17169;SDS011;8700;48.222;16.342;2023-08-31T17:04:52;5.10;;;4.78;;
17169;SDS011;8700;48.222;16.342;2023-08-31T17:08:15;4.70;;;4.40;;
17169;SDS011;8700;48.222;16.342;2023-08-31T17:11:36;3.55;;;3.35;;
17169;SDS011;8700;48.222;16.342;2023-08-31T17:14:57;3.83;;;3.53;;
17169;SDS011;8700;48.222;16.342;2023-08-31T17:18:18;4.45;;;4.03;;
17169;SDS011;8700;48.222;16.342;2023-08-31T17:21:40;6.10;;;5.63;;
17169;SDS011;8700;48.222;16.342;2023-08-31T17:25:02;6.35;;;5.35;;
17169;SDS011;8700;48.222;16.342;2023-08-31T17:28:25;6.35;;;5.75;;
17169;SDS011;8700;48.222;16.342;2023-08-31T17:31:47;5.30;;;4.90;;
17169;SDS011;8700;48.222;16.342;2023-08-31T17:35:08;8.55;;;7.85;;
17169;SDS011;8700;48.222;16.342;2023-08-31T17:38:29;5.65;;;5.15;;
17169;SDS011;8700;48.222;16.342;2023-08-31T17:41:53;5.65;;;4.47;;
17169;SDS011;8700;48.222;16.342;2023-08-31T17:45:14;5.28;;;4.78;;
17169;SDS011;8700;48.222;16.342;2023-08-31T17:48:35;7.28;;;5.22;;
17169;SDS011;8700;48.222;16.342;2023-08-31T17:51:57;4.55;;;4.13;;
17169;SDS011;8700;48.222;16.342;2023-08-31T17:55:18;4.45;;;4.15;;
17169;SDS011;8700;48.222;16.342;2023-08-31T17:58:41;6.00;;;5.40;;
17169;SDS011;8700;48.222;16.342;2023-08-31T18:02:02;4.60;;;4.30;;
17169;SDS011;8700;48.222;16.342;2023-08-31T18:05:23;5.68;;;5.28;;
17169;SDS011;8700;48.222;16.342;2023-08-31T18:08:45;5.40;;;4.90;;
17169;SDS011;8700;48.222;16.342;2023-08-31T18:12:06;5.82;;;4.80;;
17169;SDS011;8700;48.222;16.342;2023-08-31T18:15:29;4.90;;;4.40;;
17169;SDS011;8700;48.222;16.342;2023-08-31T18:18:50;5.20;;;4.63;;
17169;SDS011;8700;48.222;16.342;2023-08-31T18:22:12;5.22;;;4.28;;
17169;SDS011;8700;48.222;16.342;2023-08-31T18:25:34;4.25;;;3.95;;
17169;SDS011;8700;48.222;16.342;2023-08-31T18:28:55;5.90;;;5.32;;
17169;SDS011;8700;48.222;16.342;2023-08-31T18:32:18;4.80;;;4.50;;
17169;SDS011;8700;48.222;16.342;2023-08-31T18:35:40;4.75;;;4.35;;
17169;SDS011;8700;48.222;16.342;2023-08-31T18:39:08;5.68;;;5.28;;
17169;SDS011;8700;48.222;16.342;2023-08-31T18:42:30;4.85;;;4.47;;
17169;SDS011;8700;48.222;16.342;2023-08-31T18:45:52;4.15;;;3.85;;
17169;SDS011;8700;48.222;16.342;2023-08-31T18:49:15;4.13;;;3.83;;
17169;SDS011;8700;48.222;16.342;2023-08-31T18:52:36;4.65;;;4.30;;
17169;SDS011;8700;48.222;16.342;2023-08-31T18:56:00;4.75;;;4.40;;
17169;SDS011;8700;48.222;16.342;2023-08-31T18:59:23;5.93;;;4.97;;
17169;SDS011;8700;48.222;16.342;2023-08-31T19:02:44;5.00;;;4.60;;
17169;SDS011;8700;48.222;16.342;2023-08-31T19:06:06;6.18;;;5.57;;
17169;SDS011;8700;48.222;16.342;2023-08-31T19:09:28;5.38;;;4.95;;
17169;SDS011;8700;48.222;16.342;2023-08-31T19:12:49;6.40;;;4.45;;
17169;SDS011;8700;48.222;16.342;2023-08-31T19:16:11;5.47;;;4.97;;
17169;SDS011;8700;48.222;16.342;2023-08-31T19:19:32;5.50;;;5.05;;
17169;SDS011;8700;48.222;16.342;2023-08-31T19:22:55;8.68;;;7.85;;
17169;SDS011;8700;48.222;16.342;2023-08-31T19:26:16;6.00;;;4.88;;
17169;SDS011;8700;48.222;16.342;2023-08-31T19:29:37;5.93;;;5.43;;
17169;SDS011;8700;48.222;16.342;2023-08-31T19:32:58;6.38;;;5.75;;
17169;SDS011;8700;48.222;16.342;2023-08-31T19:36:20;5.55;;;4.88;;
17169;SDS011;8700;48.222;16.342;2023-08-31T19:39:42;5.25;;;4.82;;
17169;SDS011;8700;48.222;16.342;2023-08-31T19:43:04;5.50;;;5.00;;
17169;SDS011;8700;48.222;16.342;2023-08-31T19:46:25;6.38;;;5.85;;
17169;SDS011;8700;48.222;16.342;2023-08-31T19:49:47;6.47;;;5.88;;
17169;SDS011;8700;48.222;16.342;2023-08-31T19:53:11;6.30;;;5.38;;
17169;SDS011;8700;48.222;16.342;2023-08-31T19:56:38;6.00;;;5.50;;
17169;SDS011;8700;48.222;16.342;2023-08-31T19:59:59;7.15;;;6.18;;
17169;SDS011;8700;48.222;16.342;2023-08-31T20:03:20;6.63;;;5.78;;
17169;SDS011;8700;48.222;16.342;2023-08-31T20:06:41;6.13;;;5.38;;
17169;SDS011;8700;48.222;16.342;2023-08-31T20:10:03;5.80;;;5.20;;
17169;SDS011;8700;48.222;16.342;2023-08-31T20:13:26;5.38;;;4.97;;
17169;SDS011;8700;48.222;16.342;2023-08-31T20:16:48;5.93;;;5.32;;
17169;SDS011;8700;48.222;16.342;2023-08-31T20:20:09;5.55;;;5.05;;
17169;SDS011;8700;48.222;16.342;2023-08-31T20:23:32;5.50;;;5.03;;